sensor_id;sensor_type;location;lat;lon;timestamp;P1;durP1;ratioP1;P2;durP2;ratioP2
11313;SDS011;5712;48.858;9.206;2022-12-10T00:01:18;29.97;;;18.43;;
11313;SDS011;5712;48.858;9.206;2022-12-10T00:03:45;27.40;;;17.20;;
11313;SDS011;5712;48.858;9.206;2022-12-10T00:06:13;28.60;;;17.43;;
11313;SDS011;5712;48.858;9.206;2022-12-10T00:08:41;26.73;;;18.13;;
11313;SDS011;5712;48.858;9.206;2022-12-10T00:11:09;29.17;;;17.10;;
11313;SDS011;5712;48.858;9.206;2022-12-10T00:13:39;27.50;;;16.87;;
11313;SDS011;5712;48.858;9.206;2022-12-10T00:16:07;25.30;;;16.77;;
11313;SDS011;5712;48.858;9.206;2022-12-10T00:18:36;29.67;;;18.17;;
11313;SDS011;5712;48.858;9.206;2022-12-10T00:21:03;28.20;;;17.27;;
11313;SDS011;5712;48.858;9.206;2022-12-10T00:23:31;27.63;;;17.50;;
11313;SDS011;5712;48.858;9.206;2022-12-10T00:26:01;29.43;;;18.03;;
11313;SDS011;5712;48.858;9.206;2022-12-10T00:28:29;26.17;;;16.53;;
11313;SDS011;5712;48.858;9.206;2022-12-10T00:31:02;25.70;;;16.53;;
11313;SDS011;5712;48.858;9.206;2022-12-10T00:33:30;26.37;;;16.80;;
11313;SDS011;5712;48.858;9.206;2022-12-10T00:36:00;27.27;;;16.97;;
11313;SDS011;5712;48.858;9.206;2022-12-10T00:38:28;28.50;;;17.60;;
11313;SDS011;5712;48.858;9.206;2022-12-10T00:40:55;29.43;;;18.47;;
11313;SDS011;5712;48.858;9.206;2022-12-10T00:43:21;26.17;;;17.57;;
11313;SDS011;5712;48.858;9.206;2022-12-10T00:45:48;25.13;;;17.37;;
11313;SDS011;5712;48.858;9.206;2022-12-10T00:48:16;29.60;;;17.67;;
11313;SDS011;5712;48.858;9.206;2022-12-10T00:50:42;26.73;;;17.43;;
11313;SDS011;5712;48.858;9.206;2022-12-10T00:53:09;24.27;;;15.70;;
11313;SDS011;5712;48.858;9.206;2022-12-10T00:55:35;27.20;;;17.30;;
11313;SDS011;5712;48.858;9.206;2022-12-10T00:58:02;27.27;;;16.57;;
11313;SDS011;5712;48.858;9.206;2022-12-10T01:00:28;26.83;;;16.07;;
11313;SDS011;5712;48.858;9.206;2022-12-10T01:02:55;24.10;;;16.07;;
11313;SDS011;5712;48.858;9.206;2022-12-10T01:05:22;24.23;;;17.00;;
11313;SDS011;5712;48.858;9.206;2022-12-10T01:07:50;26.03;;;16.83;;
11313;SDS011;5712;48.858;9.206;2022-12-10T01:10:18;24.17;;;15.97;;
11313;SDS011;5712;48.858;9.206;2022-12-10T01:12:45;25.50;;;17.27;;
11313;SDS011;5712;48.858;9.206;2022-12-10T01:15:11;26.17;;;16.73;;
11313;SDS011;5712;48.858;9.206;2022-12-10T01:17:38;27.10;;;16.87;;
11313;SDS011;5712;48.858;9.206;2022-12-10T01:20:04;26.73;;;17.43;;
11313;SDS011;5712;48.858;9.206;2022-12-10T01:22:33;26.93;;;16.10;;
11313;SDS011;5712;48.858;9.206;2022-12-10T01:24:59;24.23;;;16.83;;
11313;SDS011;5712;48.858;9.206;2022-12-10T01:27:26;28.77;;;17.53;;
11313;SDS011;5712;48.858;9.206;2022-12-10T01:29:52;25.73;;;15.93;;
11313;SDS011;5712;48.858;9.206;2022-12-10T01:32:19;27.17;;;16.83;;
11313;SDS011;5712;48.858;9.206;2022-12-10T01:34:45;27.00;;;17.00;;
11313;SDS011;5712;48.858;9.206;2022-12-10T01:37:12;26.13;;;16.67;;
11313;SDS011;5712;48.858;9.206;2022-12-10T01:39:40;25.30;;;16.33;;
11313;SDS011;5712;48.858;9.206;2022-12-10T01:42:09;28.63;;;17.20;;
11313;SDS011;5712;48.858;9.206;2022-12-10T01:44:57;26.40;;;17.25;;
11313;SDS011;5712;48.858;9.206;2022-12-10T01:47:31;23.77;;;16.23;;
11313;SDS011;5712;48.858;9.206;2022-12-10T01:49:58;27.57;;;17.67;;
11313;SDS011;5712;48.858;9.206;2022-12-10T01:52:26;24.20;;;16.50;;
11313;SDS011;5712;48.858;9.206;2022-12-10T01:54:54;23.77;;;16.43;;
11313;SDS011;5712;48.858;9.206;2022-12-10T01:57:22;25.40;;;16.17;;
11313;SDS011;5712;48.858;9.206;2022-12-10T01:59:51;28.20;;;16.87;;
11313;SDS011;5712;48.858;9.206;2022-12-10T02:02:22;23.40;;;15.53;;
11313;SDS011;5712;48.858;9.206;2022-12-10T02:05:00;26.23;;;16.77;;
11313;SDS011;5712;48.858;9.206;2022-12-10T02:07:35;27.40;;;17.40;;
11313;SDS011;5712;48.858;9.206;2022-12-10T02:10:20;25.00;;;16.37;;
11313;SDS011;5712;48.858;9.206;2022-12-10T02:12:56;24.90;;;16.43;;
11313;SDS011;5712;48.858;9.206;2022-12-10T02:15:29;25.43;;;16.97;;
11313;SDS011;5712;48.858;9.206;2022-12-10T02:18:00;30.07;;;18.20;;
11313;SDS011;5712;48.858;9.206;2022-12-10T02:20:34;27.87;;;17.30;;
11313;SDS011;5712;48.858;9.206;2022-12-10T02:23:05;24.20;;;15.43;;
11313;SDS011;5712;48.858;9.206;2022-12-10T02:25:37;22.00;;;14.93;;
11313;SDS011;5712;48.858;9.206;2022-12-10T02:28:12;24.03;;;16.33;;
11313;SDS011;5712;48.858;9.206;2022-12-10T02:30:47;24.77;;;16.67;;
11313;SDS011;5712;48.858;9.206;2022-12-10T02:33:17;23.77;;;15.23;;
11313;SDS011;5712;48.858;9.206;2022-12-10T02:35:45;27.27;;;16.70;;
11313;SDS011;5712;48.858;9.206;2022-12-10T02:38:16;26.13;;;16.97;;
11313;SDS011;5712;48.858;9.206;2022-12-10T02:40:47;27.27;;;17.07;;
11313;SDS011;5712;48.858;9.206;2022-12-10T02:43:18;25.80;;;16.73;;
11313;SDS011;5712;48.858;9.206;2022-12-10T02:45:49;27.17;;;17.77;;
11313;SDS011;5712;48.858;9.206;2022-12-10T02:48:16;26.17;;;16.73;;
11313;SDS011;5712;48.858;9.206;2022-12-10T02:50:44;26.97;;;16.57;;
11313;SDS011;5712;48.858;9.206;2022-12-10T02:53:11;27.20;;;17.30;;
11313;SDS011;5712;48.858;9.206;2022-12-10T02:55:41;25.80;;;16.10;;
11313;SDS011;5712;48.858;9.206;2022-12-10T02:58:19;26.77;;;16.53;;
11313;SDS011;5712;48.858;9.206;2022-12-10T03:00:56;28.10;;;17.40;;
11313;SDS011;5712;48.858;9.206;2022-12-10T03:03:31;24.63;;;14.93;;
11313;SDS011;5712;48.858;9.206;2022-12-10T03:06:05;22.97;;;15.10;;
11313;SDS011;5712;48.858;9.206;2022-12-10T03:08:39;24.00;;;15.20;;
11313;SDS011;5712;48.858;9.206;2022-12-10T03:11:12;27.73;;;16.93;;
11313;SDS011;5712;48.858;9.206;2022-12-10T03:13:43;26.83;;;16.33;;
11313;SDS011;5712;48.858;9.206;2022-12-10T03:16:22;24.20;;;15.87;;
11313;SDS011;5712;48.858;9.206;2022-12-10T03:18:50;25.03;;;15.60;;
11313;SDS011;5712;48.858;9.206;2022-12-10T03:21:20;22.70;;;15.20;;
11313;SDS011;5712;48.858;9.206;2022-12-10T03:23:48;24.37;;;15.47;;
11313;SDS011;5712;48.858;9.206;2022-12-10T03:26:16;23.73;;;14.57;;
11313;SDS011;5712;48.858;9.206;2022-12-10T03:28:45;28.13;;;18.07;;
11313;SDS011;5712;48.858;9.206;2022-12-10T03:31:14;27.07;;;17.13;;
11313;SDS011;5712;48.858;9.206;2022-12-10T03:33:43;25.83;;;16.47;;
11313;SDS011;5712;48.858;9.206;2022-12-10T03:36:12;27.20;;;17.07;;
11313;SDS011;5712;48.858;9.206;2022-12-10T03:38:39;31.37;;;17.80;;
11313;SDS011;5712;48.858;9.206;2022-12-10T03:41:06;27.17;;;17.33;;
11313;SDS011;5712;48.858;9.206;2022-12-10T03:43:33;26.57;;;16.10;;
11313;SDS011;5712;48.858;9.206;2022-12-10T03:46:00;27.73;;;16.47;;
11313;SDS011;5712;48.858;9.206;2022-12-10T03:48:26;26.33;;;15.63;;
11313;SDS011;5712;48.858;9.206;2022-12-10T03:50:54;28.80;;;18.03;;
11313;SDS011;5712;48.858;9.206;2022-12-10T03:53:21;26.33;;;16.70;;
11313;SDS011;5712;48.858;9.206;2022-12-10T03:55:47;28.97;;;17.60;;
11313;SDS011;5712;48.858;9.206;2022-12-10T03:58:14;29.77;;;19.03;;
11313;SDS011;5712;48.858;9.206;2022-12-10T04:00:40;29.33;;;17.73;;
11313;SDS011;5712;48.858;9.206;2022-12-10T04:03:07;24.63;;;16.43;;
11313;SDS011;5712;48.858;9.206;2022-12-10T04:05:33;28.60;;;17.10;;
11313;SDS011;5712;48.858;9.206;2022-12-10T04:08:01;27.07;;;16.53;;
11313;SDS011;5712;48.858;9.206;2022-12-10T04:10:27;27.00;;;17.03;;
11313;SDS011;5712;48.858;9.206;2022-12-10T04:12:54;27.77;;;17.53;;
11313;SDS011;5712;48.858;9.206;2022-12-10T04:15:37;26.57;;;16.97;;
11313;SDS011;5712;48.858;9.206;2022-12-10T04:18:22;24.97;;;16.47;;
11313;SDS011;5712;48.858;9.206;2022-12-10T04:20:48;25.93;;;16.30;;
11313;SDS011;5712;48.858;9.206;2022-12-10T04:23:34;24.67;;;15.93;;
11313;SDS011;5712;48.858;9.206;2022-12-10T04:26:18;25.47;;;16.60;;
11313;SDS011;5712;48.858;9.206;2022-12-10T04:29:08;25.87;;;16.73;;
11313;SDS011;5712;48.858;9.206;2022-12-10T04:31:35;27.10;;;16.97;;
11313;SDS011;5712;48.858;9.206;2022-12-10T04:34:02;25.80;;;17.70;;
11313;SDS011;5712;48.858;9.206;2022-12-10T04:36:28;26.87;;;17.13;;
11313;SDS011;5712;48.858;9.206;2022-12-10T04:38:56;29.90;;;19.30;;
11313;SDS011;5712;48.858;9.206;2022-12-10T04:41:22;27.60;;;17.50;;
11313;SDS011;5712;48.858;9.206;2022-12-10T04:43:49;27.63;;;16.77;;
11313;SDS011;5712;48.858;9.206;2022-12-10T04:46:15;24.20;;;17.07;;
11313;SDS011;5712;48.858;9.206;2022-12-10T04:48:42;28.57;;;16.77;;
11313;SDS011;5712;48.858;9.206;2022-12-10T04:51:08;25.43;;;16.83;;
11313;SDS011;5712;48.858;9.206;2022-12-10T04:53:35;27.43;;;18.10;;
11313;SDS011;5712;48.858;9.206;2022-12-10T04:56:03;28.90;;;17.47;;
11313;SDS011;5712;48.858;9.206;2022-12-10T04:58:30;30.30;;;18.47;;
11313;SDS011;5712;48.858;9.206;2022-12-10T05:01:00;26.20;;;16.47;;
11313;SDS011;5712;48.858;9.206;2022-12-10T05:03:27;27.37;;;17.47;;
11313;SDS011;5712;48.858;9.206;2022-12-10T05:05:54;27.47;;;17.40;;
11313;SDS011;5712;48.858;9.206;2022-12-10T05:08:21;27.87;;;17.40;;
11313;SDS011;5712;48.858;9.206;2022-12-10T05:10:47;29.57;;;17.90;;
11313;SDS011;5712;48.858;9.206;2022-12-10T05:13:15;28.93;;;17.87;;
11313;SDS011;5712;48.858;9.206;2022-12-10T05:15:42;28.03;;;16.90;;
11313;SDS011;5712;48.858;9.206;2022-12-10T05:18:08;31.70;;;19.07;;
11313;SDS011;5712;48.858;9.206;2022-12-10T05:20:34;28.50;;;17.57;;
11313;SDS011;5712;48.858;9.206;2022-12-10T05:23:01;29.43;;;17.90;;
11313;SDS011;5712;48.858;9.206;2022-12-10T05:25:45;28.77;;;17.80;;
11313;SDS011;5712;48.858;9.206;2022-12-10T05:28:20;29.60;;;18.73;;
11313;SDS011;5712;48.858;9.206;2022-12-10T05:30:46;34.63;;;17.67;;
11313;SDS011;5712;48.858;9.206;2022-12-10T05:33:13;29.00;;;18.20;;
11313;SDS011;5712;48.858;9.206;2022-12-10T05:35:39;31.60;;;18.97;;
11313;SDS011;5712;48.858;9.206;2022-12-10T05:38:06;27.70;;;18.13;;
11313;SDS011;5712;48.858;9.206;2022-12-10T05:40:33;31.77;;;19.07;;
11313;SDS011;5712;48.858;9.206;2022-12-10T05:43:00;31.67;;;19.07;;
11313;SDS011;5712;48.858;9.206;2022-12-10T05:45:28;29.80;;;18.80;;
11313;SDS011;5712;48.858;9.206;2022-12-10T05:47:54;27.40;;;17.73;;
11313;SDS011;5712;48.858;9.206;2022-12-10T05:50:21;30.00;;;18.30;;
11313;SDS011;5712;48.858;9.206;2022-12-10T05:52:49;29.00;;;17.77;;
11313;SDS011;5712;48.858;9.206;2022-12-10T05:55:16;28.07;;;16.87;;
11313;SDS011;5712;48.858;9.206;2022-12-10T05:57:43;30.43;;;17.50;;
11313;SDS011;5712;48.858;9.206;2022-12-10T06:00:09;32.50;;;19.37;;
11313;SDS011;5712;48.858;9.206;2022-12-10T06:02:38;28.40;;;18.33;;
11313;SDS011;5712;48.858;9.206;2022-12-10T06:05:05;29.90;;;18.73;;
11313;SDS011;5712;48.858;9.206;2022-12-10T06:07:32;31.07;;;18.83;;
11313;SDS011;5712;48.858;9.206;2022-12-10T06:09:58;27.63;;;17.40;;
11313;SDS011;5712;48.858;9.206;2022-12-10T06:12:25;29.47;;;18.27;;
11313;SDS011;5712;48.858;9.206;2022-12-10T06:14:51;30.70;;;17.53;;
11313;SDS011;5712;48.858;9.206;2022-12-10T06:17:18;32.90;;;18.83;;
11313;SDS011;5712;48.858;9.206;2022-12-10T06:19:45;26.73;;;17.00;;
11313;SDS011;5712;48.858;9.206;2022-12-10T06:22:12;30.20;;;18.47;;
11313;SDS011;5712;48.858;9.206;2022-12-10T06:24:38;27.30;;;16.97;;
11313;SDS011;5712;48.858;9.206;2022-12-10T06:27:05;27.87;;;17.70;;
11313;SDS011;5712;48.858;9.206;2022-12-10T06:29:32;28.47;;;17.43;;
11313;SDS011;5712;48.858;9.206;2022-12-10T06:31:58;30.33;;;17.63;;
11313;SDS011;5712;48.858;9.206;2022-12-10T06:34:25;25.43;;;15.83;;
11313;SDS011;5712;48.858;9.206;2022-12-10T06:36:53;26.57;;;17.93;;
11313;SDS011;5712;48.858;9.206;2022-12-10T06:39:19;27.37;;;16.80;;
11313;SDS011;5712;48.858;9.206;2022-12-10T06:41:46;28.27;;;17.80;;
11313;SDS011;5712;48.858;9.206;2022-12-10T06:44:12;29.57;;;18.33;;
11313;SDS011;5712;48.858;9.206;2022-12-10T06:46:39;29.00;;;17.87;;
11313;SDS011;5712;48.858;9.206;2022-12-10T06:49:06;29.37;;;18.17;;
11313;SDS011;5712;48.858;9.206;2022-12-10T06:51:34;30.10;;;18.33;;
11313;SDS011;5712;48.858;9.206;2022-12-10T06:54:02;26.90;;;17.20;;
11313;SDS011;5712;48.858;9.206;2022-12-10T06:56:29;27.37;;;17.67;;
11313;SDS011;5712;48.858;9.206;2022-12-10T06:58:56;28.87;;;18.30;;
11313;SDS011;5712;48.858;9.206;2022-12-10T07:01:23;33.47;;;19.53;;
11313;SDS011;5712;48.858;9.206;2022-12-10T07:03:51;29.13;;;16.67;;
11313;SDS011;5712;48.858;9.206;2022-12-10T07:06:19;26.17;;;17.03;;
11313;SDS011;5712;48.858;9.206;2022-12-10T07:08:46;28.43;;;17.60;;
11313;SDS011;5712;48.858;9.206;2022-12-10T07:11:15;27.53;;;16.87;;
11313;SDS011;5712;48.858;9.206;2022-12-10T07:13:46;28.00;;;17.00;;
11313;SDS011;5712;48.858;9.206;2022-12-10T07:16:13;28.60;;;17.07;;
11313;SDS011;5712;48.858;9.206;2022-12-10T07:18:40;25.40;;;16.53;;
11313;SDS011;5712;48.858;9.206;2022-12-10T07:21:12;26.63;;;16.87;;
11313;SDS011;5712;48.858;9.206;2022-12-10T07:23:39;27.37;;;17.40;;
11313;SDS011;5712;48.858;9.206;2022-12-10T07:26:06;27.87;;;17.63;;
11313;SDS011;5712;48.858;9.206;2022-12-10T07:28:34;26.63;;;16.50;;
11313;SDS011;5712;48.858;9.206;2022-12-10T07:31:01;28.87;;;17.70;;
11313;SDS011;5712;48.858;9.206;2022-12-10T07:33:27;30.93;;;17.83;;
11313;SDS011;5712;48.858;9.206;2022-12-10T07:35:54;24.37;;;16.43;;
11313;SDS011;5712;48.858;9.206;2022-12-10T07:38:21;27.17;;;17.13;;
11313;SDS011;5712;48.858;9.206;2022-12-10T07:40:47;31.77;;;18.93;;
11313;SDS011;5712;48.858;9.206;2022-12-10T07:43:16;27.13;;;16.83;;
11313;SDS011;5712;48.858;9.206;2022-12-10T07:45:44;29.17;;;16.63;;
11313;SDS011;5712;48.858;9.206;2022-12-10T07:48:11;27.67;;;17.57;;
11313;SDS011;5712;48.858;9.206;2022-12-10T07:50:37;27.67;;;17.07;;
11313;SDS011;5712;48.858;9.206;2022-12-10T07:53:04;29.20;;;17.57;;
11313;SDS011;5712;48.858;9.206;2022-12-10T07:55:31;27.13;;;17.17;;
11313;SDS011;5712;48.858;9.206;2022-12-10T07:57:58;26.63;;;16.63;;
11313;SDS011;5712;48.858;9.206;2022-12-10T08:00:24;24.40;;;16.20;;
11313;SDS011;5712;48.858;9.206;2022-12-10T08:02:52;33.00;;;18.40;;
11313;SDS011;5712;48.858;9.206;2022-12-10T08:05:18;25.37;;;16.83;;
11313;SDS011;5712;48.858;9.206;2022-12-10T08:07:45;26.50;;;16.50;;
11313;SDS011;5712;48.858;9.206;2022-12-10T08:10:12;28.30;;;18.23;;
11313;SDS011;5712;48.858;9.206;2022-12-10T08:12:38;29.43;;;17.83;;
11313;SDS011;5712;48.858;9.206;2022-12-10T08:15:05;27.67;;;17.50;;
11313;SDS011;5712;48.858;9.206;2022-12-10T08:17:34;31.50;;;19.00;;
11313;SDS011;5712;48.858;9.206;2022-12-10T08:20:03;29.83;;;16.60;;
11313;SDS011;5712;48.858;9.206;2022-12-10T08:22:29;29.53;;;17.83;;
11313;SDS011;5712;48.858;9.206;2022-12-10T08:24:58;29.63;;;17.80;;
11313;SDS011;5712;48.858;9.206;2022-12-10T08:27:24;26.53;;;16.83;;
11313;SDS011;5712;48.858;9.206;2022-12-10T08:29:51;30.27;;;17.67;;
11313;SDS011;5712;48.858;9.206;2022-12-10T08:32:17;29.87;;;17.07;;
11313;SDS011;5712;48.858;9.206;2022-12-10T08:34:44;29.97;;;17.20;;
11313;SDS011;5712;48.858;9.206;2022-12-10T08:37:12;28.40;;;17.67;;
11313;SDS011;5712;48.858;9.206;2022-12-10T08:39:38;29.47;;;18.30;;
11313;SDS011;5712;48.858;9.206;2022-12-10T08:42:05;31.57;;;17.63;;
11313;SDS011;5712;48.858;9.206;2022-12-10T08:44:31;26.47;;;16.77;;
11313;SDS011;5712;48.858;9.206;2022-12-10T08:46:58;26.27;;;17.63;;
11313;SDS011;5712;48.858;9.206;2022-12-10T08:49:24;28.60;;;16.93;;
11313;SDS011;5712;48.858;9.206;2022-12-10T08:51:51;24.83;;;16.03;;
11313;SDS011;5712;48.858;9.206;2022-12-10T08:54:19;25.80;;;16.37;;
11313;SDS011;5712;48.858;9.206;2022-12-10T08:56:45;27.90;;;18.20;;
11313;SDS011;5712;48.858;9.206;2022-12-10T08:59:12;27.43;;;16.57;;
11313;SDS011;5712;48.858;9.206;2022-12-10T09:01:39;30.43;;;18.00;;
11313;SDS011;5712;48.858;9.206;2022-12-10T09:04:05;28.70;;;17.30;;
11313;SDS011;5712;48.858;9.206;2022-12-10T09:06:32;28.23;;;18.10;;
11313;SDS011;5712;48.858;9.206;2022-12-10T09:08:59;28.53;;;17.83;;
11313;SDS011;5712;48.858;9.206;2022-12-10T09:11:28;25.27;;;17.67;;
11313;SDS011;5712;48.858;9.206;2022-12-10T09:13:56;26.63;;;16.63;;
11313;SDS011;5712;48.858;9.206;2022-12-10T09:16:27;26.07;;;16.23;;
11313;SDS011;5712;48.858;9.206;2022-12-10T09:18:54;26.63;;;16.90;;
11313;SDS011;5712;48.858;9.206;2022-12-10T09:21:21;25.50;;;16.20;;
11313;SDS011;5712;48.858;9.206;2022-12-10T09:23:47;25.17;;;17.07;;
11313;SDS011;5712;48.858;9.206;2022-12-10T09:26:16;28.27;;;16.43;;
11313;SDS011;5712;48.858;9.206;2022-12-10T09:28:45;28.00;;;17.50;;
11313;SDS011;5712;48.858;9.206;2022-12-10T09:31:13;27.73;;;17.00;;
11313;SDS011;5712;48.858;9.206;2022-12-10T09:33:40;26.00;;;15.10;;
11313;SDS011;5712;48.858;9.206;2022-12-10T09:36:08;25.77;;;16.03;;
11313;SDS011;5712;48.858;9.206;2022-12-10T09:38:37;25.37;;;15.87;;
11313;SDS011;5712;48.858;9.206;2022-12-10T09:41:05;26.73;;;16.20;;
11313;SDS011;5712;48.858;9.206;2022-12-10T09:43:47;24.77;;;14.50;;
11313;SDS011;5712;48.858;9.206;2022-12-10T09:46:18;23.60;;;15.27;;
11313;SDS011;5712;48.858;9.206;2022-12-10T09:48:52;28.33;;;17.00;;
11313;SDS011;5712;48.858;9.206;2022-12-10T09:51:27;24.30;;;15.70;;
11313;SDS011;5712;48.858;9.206;2022-12-10T09:53:56;25.67;;;16.57;;
11313;SDS011;5712;48.858;9.206;2022-12-10T09:56:25;25.97;;;15.80;;
11313;SDS011;5712;48.858;9.206;2022-12-10T09:58:55;21.87;;;14.10;;
11313;SDS011;5712;48.858;9.206;2022-12-10T10:01:24;23.40;;;15.83;;
11313;SDS011;5712;48.858;9.206;2022-12-10T10:03:53;25.40;;;16.30;;
11313;SDS011;5712;48.858;9.206;2022-12-10T10:06:20;26.17;;;17.10;;
11313;SDS011;5712;48.858;9.206;2022-12-10T10:08:48;22.13;;;14.63;;
11313;SDS011;5712;48.858;9.206;2022-12-10T10:11:20;25.60;;;16.53;;
11313;SDS011;5712;48.858;9.206;2022-12-10T10:13:49;24.53;;;15.83;;
11313;SDS011;5712;48.858;9.206;2022-12-10T10:16:22;23.57;;;15.30;;
11313;SDS011;5712;48.858;9.206;2022-12-10T10:18:52;22.17;;;15.20;;
11313;SDS011;5712;48.858;9.206;2022-12-10T10:21:25;23.13;;;15.73;;
11313;SDS011;5712;48.858;9.206;2022-12-10T10:23:53;21.67;;;15.13;;
11313;SDS011;5712;48.858;9.206;2022-12-10T10:26:23;23.53;;;15.10;;
11313;SDS011;5712;48.858;9.206;2022-12-10T10:28:51;24.63;;;16.17;;
11313;SDS011;5712;48.858;9.206;2022-12-10T10:31:24;23.80;;;15.30;;
11313;SDS011;5712;48.858;9.206;2022-12-10T10:33:53;23.97;;;15.97;;
11313;SDS011;5712;48.858;9.206;2022-12-10T10:36:25;23.00;;;15.27;;
11313;SDS011;5712;48.858;9.206;2022-12-10T10:38:54;25.17;;;15.60;;
11313;SDS011;5712;48.858;9.206;2022-12-10T10:41:20;23.60;;;14.37;;
11313;SDS011;5712;48.858;9.206;2022-12-10T10:43:51;26.00;;;16.43;;
11313;SDS011;5712;48.858;9.206;2022-12-10T10:46:26;23.47;;;15.83;;
11313;SDS011;5712;48.858;9.206;2022-12-10T10:48:53;27.97;;;16.57;;
11313;SDS011;5712;48.858;9.206;2022-12-10T10:51:41;23.20;;;15.17;;
11313;SDS011;5712;48.858;9.206;2022-12-10T10:54:09;22.53;;;15.00;;
11313;SDS011;5712;48.858;9.206;2022-12-10T10:56:38;25.37;;;15.90;;
11313;SDS011;5712;48.858;9.206;2022-12-10T10:59:15;24.03;;;16.70;;
11313;SDS011;5712;48.858;9.206;2022-12-10T11:01:59;25.83;;;15.83;;
11313;SDS011;5712;48.858;9.206;2022-12-10T11:04:36;23.40;;;15.77;;
11313;SDS011;5712;48.858;9.206;2022-12-10T11:07:04;27.53;;;17.30;;
11313;SDS011;5712;48.858;9.206;2022-12-10T11:09:39;25.80;;;16.60;;
11313;SDS011;5712;48.858;9.206;2022-12-10T11:12:06;25.67;;;16.43;;
11313;SDS011;5712;48.858;9.206;2022-12-10T11:14:46;21.70;;;14.83;;
11313;SDS011;5712;48.858;9.206;2022-12-10T11:17:19;24.63;;;15.90;;
11313;SDS011;5712;48.858;9.206;2022-12-10T11:19:53;23.73;;;15.43;;
11313;SDS011;5712;48.858;9.206;2022-12-10T11:22:23;23.93;;;14.93;;
11313;SDS011;5712;48.858;9.206;2022-12-10T11:24:51;21.67;;;14.77;;
11313;SDS011;5712;48.858;9.206;2022-12-10T11:27:20;26.63;;;16.47;;
11313;SDS011;5712;48.858;9.206;2022-12-10T11:30:00;23.30;;;15.77;;
11313;SDS011;5712;48.858;9.206;2022-12-10T11:32:34;23.97;;;15.90;;
11313;SDS011;5712;48.858;9.206;2022-12-10T11:35:13;25.63;;;15.87;;
11313;SDS011;5712;48.858;9.206;2022-12-10T11:37:47;26.90;;;16.87;;
11313;SDS011;5712;48.858;9.206;2022-12-10T11:40:26;27.30;;;16.70;;
11313;SDS011;5712;48.858;9.206;2022-12-10T11:43:02;25.80;;;17.83;;
11313;SDS011;5712;48.858;9.206;2022-12-10T11:45:43;25.93;;;16.20;;
11313;SDS011;5712;48.858;9.206;2022-12-10T11:48:25;24.70;;;15.13;;
11313;SDS011;5712;48.858;9.206;2022-12-10T11:51:01;24.40;;;14.63;;
11313;SDS011;5712;48.858;9.206;2022-12-10T11:53:39;23.90;;;15.00;;
11313;SDS011;5712;48.858;9.206;2022-12-10T11:56:17;21.60;;;14.63;;
11313;SDS011;5712;48.858;9.206;2022-12-10T11:58:57;24.93;;;15.10;;
11313;SDS011;5712;48.858;9.206;2022-12-10T12:04:29;19.97;;;13.67;;
11313;SDS011;5712;48.858;9.206;2022-12-10T12:12:58;22.10;;;14.77;;
11313;SDS011;5712;48.858;9.206;2022-12-10T12:15:28;20.57;;;14.57;;
11313;SDS011;5712;48.858;9.206;2022-12-10T12:17:58;19.90;;;13.37;;
11313;SDS011;5712;48.858;9.206;2022-12-10T12:20:30;22.23;;;15.07;;
11313;SDS011;5712;48.858;9.206;2022-12-10T12:23:01;20.27;;;13.50;;
11313;SDS011;5712;48.858;9.206;2022-12-10T12:25:32;20.53;;;13.50;;
11313;SDS011;5712;48.858;9.206;2022-12-10T12:28:05;21.07;;;14.43;;
11313;SDS011;5712;48.858;9.206;2022-12-10T12:30:37;21.07;;;12.97;;
11313;SDS011;5712;48.858;9.206;2022-12-10T12:33:09;21.10;;;13.13;;
11313;SDS011;5712;48.858;9.206;2022-12-10T12:35:42;19.70;;;13.33;;
11313;SDS011;5712;48.858;9.206;2022-12-10T12:38:23;17.97;;;12.50;;
11313;SDS011;5712;48.858;9.206;2022-12-10T12:40:56;18.60;;;13.80;;
11313;SDS011;5712;48.858;9.206;2022-12-10T12:43:37;20.87;;;14.00;;
11313;SDS011;5712;48.858;9.206;2022-12-10T12:46:10;20.90;;;14.37;;
11313;SDS011;5712;48.858;9.206;2022-12-10T12:48:43;19.17;;;13.27;;
11313;SDS011;5712;48.858;9.206;2022-12-10T12:51:19;23.03;;;13.77;;
11313;SDS011;5712;48.858;9.206;2022-12-10T12:53:49;22.37;;;13.87;;
11313;SDS011;5712;48.858;9.206;2022-12-10T12:56:18;19.87;;;13.73;;
11313;SDS011;5712;48.858;9.206;2022-12-10T12:58:55;19.10;;;13.23;;
11313;SDS011;5712;48.858;9.206;2022-12-10T13:01:30;21.27;;;14.40;;
11313;SDS011;5712;48.858;9.206;2022-12-10T13:04:00;20.47;;;13.47;;
11313;SDS011;5712;48.858;9.206;2022-12-10T13:06:29;20.33;;;13.67;;
11313;SDS011;5712;48.858;9.206;2022-12-10T13:08:58;22.03;;;13.30;;
11313;SDS011;5712;48.858;9.206;2022-12-10T13:11:46;20.97;;;14.03;;
11313;SDS011;5712;48.858;9.206;2022-12-10T13:14:33;19.00;;;13.17;;
11313;SDS011;5712;48.858;9.206;2022-12-10T13:17:07;21.20;;;13.20;;
11313;SDS011;5712;48.858;9.206;2022-12-10T13:19:50;20.17;;;13.30;;
11313;SDS011;5712;48.858;9.206;2022-12-10T13:25:21;17.77;;;12.43;;
11313;SDS011;5712;48.858;9.206;2022-12-10T13:28:17;20.17;;;13.53;;
11313;SDS011;5712;48.858;9.206;2022-12-10T13:33:45;21.20;;;13.13;;
11313;SDS011;5712;48.858;9.206;2022-12-10T13:36:20;21.00;;;12.87;;
11313;SDS011;5712;48.858;9.206;2022-12-10T13:39:10;22.23;;;13.30;;
11313;SDS011;5712;48.858;9.206;2022-12-10T13:41:40;19.73;;;13.40;;
11313;SDS011;5712;48.858;9.206;2022-12-10T13:44:31;20.03;;;13.27;;
11313;SDS011;5712;48.858;9.206;2022-12-10T13:47:04;23.23;;;14.90;;
11313;SDS011;5712;48.858;9.206;2022-12-10T13:49:47;25.23;;;16.23;;
11313;SDS011;5712;48.858;9.206;2022-12-10T13:52:18;24.87;;;15.93;;
11313;SDS011;5712;48.858;9.206;2022-12-10T13:54:59;25.87;;;16.00;;
11313;SDS011;5712;48.858;9.206;2022-12-10T13:57:48;21.90;;;14.47;;
11313;SDS011;5712;48.858;9.206;2022-12-10T14:00:29;28.53;;;16.00;;
11313;SDS011;5712;48.858;9.206;2022-12-10T14:03:10;26.77;;;16.57;;
11313;SDS011;5712;48.858;9.206;2022-12-10T14:06:03;24.93;;;15.53;;
11313;SDS011;5712;48.858;9.206;2022-12-10T14:08:41;25.00;;;16.53;;
11313;SDS011;5712;48.858;9.206;2022-12-10T14:11:25;27.67;;;16.67;;
11313;SDS011;5712;48.858;9.206;2022-12-10T14:13:55;26.97;;;16.77;;
11313;SDS011;5712;48.858;9.206;2022-12-10T14:16:24;24.57;;;15.20;;
11313;SDS011;5712;48.858;9.206;2022-12-10T14:18:55;27.90;;;16.10;;
11313;SDS011;5712;48.858;9.206;2022-12-10T14:21:24;26.03;;;16.07;;
11313;SDS011;5712;48.858;9.206;2022-12-10T14:23:51;24.50;;;15.63;;
11313;SDS011;5712;48.858;9.206;2022-12-10T14:26:19;29.53;;;16.40;;
11313;SDS011;5712;48.858;9.206;2022-12-10T14:28:49;28.47;;;17.30;;
11313;SDS011;5712;48.858;9.206;2022-12-10T14:31:17;28.27;;;17.43;;
11313;SDS011;5712;48.858;9.206;2022-12-10T14:33:46;26.17;;;16.33;;
11313;SDS011;5712;48.858;9.206;2022-12-10T14:36:21;26.37;;;15.83;;
11313;SDS011;5712;48.858;9.206;2022-12-10T14:38:52;24.47;;;15.73;;
11313;SDS011;5712;48.858;9.206;2022-12-10T14:41:20;24.93;;;15.47;;
11313;SDS011;5712;48.858;9.206;2022-12-10T14:43:50;24.03;;;14.20;;
11313;SDS011;5712;48.858;9.206;2022-12-10T14:46:18;27.73;;;16.73;;
11313;SDS011;5712;48.858;9.206;2022-12-10T14:48:48;23.27;;;14.83;;
11313;SDS011;5712;48.858;9.206;2022-12-10T14:51:16;25.40;;;15.23;;
11313;SDS011;5712;48.858;9.206;2022-12-10T14:53:45;22.97;;;14.77;;
11313;SDS011;5712;48.858;9.206;2022-12-10T14:56:14;24.40;;;14.97;;
11313;SDS011;5712;48.858;9.206;2022-12-10T14:58:47;26.53;;;15.97;;
11313;SDS011;5712;48.858;9.206;2022-12-10T15:01:20;23.33;;;14.73;;
11313;SDS011;5712;48.858;9.206;2022-12-10T15:03:52;26.30;;;15.77;;
11313;SDS011;5712;48.858;9.206;2022-12-10T15:06:19;27.20;;;16.20;;